TimeAST,TemperatureF,Dew PointF,Humidity,Sea Level PressureIn,VisibilityMPH,Wind Direction,Wind SpeedMPH,Gust SpeedMPH,PrecipitationIn,Events,Conditions,WindDirDegrees,DateUTC
12:56 AM,75.0,70.0,84,30.06,10.0,Calm,Calm,-,N/A,,Partly Cloudy,0,2013-01-23 04:56:00
1:56 AM,73.9,70.0,87,30.06,10.0,Calm,Calm,-,N/A,,Partly Cloudy,0,2013-01-23 05:56:00
2:56 AM,73.9,69.1,85,30.04,10.0,Calm,Calm,-,N/A,,Mostly Cloudy,0,2013-01-23 06:56:00
3:56 AM,75.0,71.1,87,30.05,10.0,Calm,Calm,-,0.00,,Mostly Cloudy,0,2013-01-23 07:56:00
4:56 AM,75.0,70.0,84,30.06,10.0,SSW,4.6,-,N/A,,Mostly Cloudy,210,2013-01-23 08:56:00
5:56 AM,75.0,70.0,84,30.06,10.0,Calm,Calm,-,0.00,,Mostly Cloudy,0,2013-01-23 09:56:00
6:56 AM,75.0,70.0,84,30.07,10.0,Calm,Calm,-,N/A,,Mostly Cloudy,0,2013-01-23 10:56:00
7:56 AM,75.9,70.0,82,30.09,10.0,Calm,Calm,-,0.01,,Mostly Cloudy,0,2013-01-23 11:56:00
8:56 AM,78.1,71.1,79,30.12,10.0,Calm,Calm,-,N/A,,Mostly Cloudy,0,2013-01-23 12:56:00
9:56 AM,81.0,71.1,72,30.13,10.0,ESE,9.2,-,N/A,,Mostly Cloudy,110,2013-01-23 13:56:00
10:56 AM,84.0,68.0,58,30.11,10.0,ESE,9.2,-,N/A,,Partly Cloudy,110,2013-01-23 14:56:00
11:56 AM,84.9,69.1,59,30.09,10.0,ESE,11.5,-,N/A,,Partly Cloudy,110,2013-01-23 15:56:00
12:56 PM,86.0,71.1,61,30.06,10.0,ENE,16.1,-,N/A,,Partly Cloudy,70,2013-01-23 16:56:00
1:56 PM,82.9,70.0,65,30.04,10.0,ENE,18.4,-,N/A,,Scattered Clouds,60,2013-01-23 17:56:00
2:56 PM,84.0,71.1,65,30.03,10.0,ENE,18.4,25.3,N/A,,Scattered Clouds,60,2013-01-23 18:56:00
3:56 PM,81.0,70.0,69,30.03,10.0,East,12.7,-,N/A,,Scattered Clouds,80,2013-01-23 19:56:00
4:56 PM,81.0,71.1,72,30.03,10.0,East,12.7,-,N/A,,Partly Cloudy,80,2013-01-23 20:56:00
5:56 PM,80.1,71.1,74,30.04,10.0,East,11.5,-,N/A,,Partly Cloudy,80,2013-01-23 21:56:00
6:56 PM,78.1,71.1,79,30.05,10.0,East,9.2,-,N/A,,Partly Cloudy,80,2013-01-23 22:56:00
7:56 PM,77.0,71.1,82,30.07,10.0,East,6.9,-,N/A,,Partly Cloudy,90,2013-01-23 23:56:00
8:56 PM,77.0,71.1,82,30.09,10.0,East,4.6,-,N/A,,Partly Cloudy,100,2013-01-24 00:56:00
9:56 PM,77.0,71.1,82,30.10,10.0,SE,4.6,-,N/A,,Partly Cloudy,130,2013-01-24 01:56:00
10:56 PM,75.9,69.1,79,30.09,10.0,SE,5.8,-,N/A,,Partly Cloudy,130,2013-01-24 02:56:00
11:56 PM,75.9,69.1,79,30.08,10.0,East,5.8,-,N/A,,Scattered Clouds,100,2013-01-24 03:56:00